Time;durP1;ratioP1;P1;durP2;ratioP2;P2;SDS_P1;SDS_P2;PMS_P1;PMS_P2;Temp;Humidity;BMP_temperature;BMP_pressure;BME280_temperature;BME280_humidity;BME280_pressure;Samples;Min_cycle;Max_cycle;Signal;HPM_P1;HPM_P2
2023/01/01 00:02:21;;;;;;;30.48;17.00;;;;;;;6.59;nan;101879.78;5043412;28;20040;-68
2023/01/01 00:04:48;;;;;;;28.48;16.55;;;;;;;6.63;nan;101879.47;5052947;28;20021;-68
2023/01/01 00:07:13;;;;;;;32.58;17.42;;;;;;;6.54;nan;101858.53;5041467;28;20063;-68
2023/01/01 00:12:22;;;;;;;33.03;18.05;;;;;;;6.53;nan;101867.34;5038920;28;20046;-68
2023/01/01 00:14:48;;;;;;;32.95;17.35;;;;;;;6.50;nan;101867.69;5041000;28;20726;-69
2023/01/01 00:17:13;;;;;;;34.40;18.52;;;;;;;6.42;nan;101856.38;5051239;28;20029;-66
2023/01/01 00:19:38;;;;;;;32.83;18.45;;;;;;;6.37;nan;101862.13;5043211;28;20021;-69
2023/01/01 00:22:04;;;;;;;34.72;18.80;;;;;;;6.44;nan;101876.19;5036565;28;20020;-67
2023/01/01 00:24:29;;;;;;;33.10;17.98;;;;;;;6.44;nan;101876.19;5032848;28;20039;-69
2023/01/01 00:26:54;;;;;;;34.47;17.45;;;;;;;6.39;nan;101870.59;5031452;28;20046;-69
2023/01/01 00:29:20;;;;;;;35.55;19.52;;;;;;;6.39;nan;101887.13;5039106;28;20029;-68
2023/01/01 00:31:45;;;;;;;33.10;17.95;;;;;;;6.24;nan;101866.97;5039134;28;20037;-68
2023/01/01 00:34:11;;;;;;;33.10;18.83;;;;;;;6.32;nan;101903.59;5033979;28;20543;-68
2023/01/01 00:36:36;;;;;;;29.77;17.67;;;;;;;6.31;nan;101904.59;5030802;28;20033;-68
2023/01/01 00:39:02;;;;;;;32.90;18.98;;;;;;;6.25;nan;101903.44;5029780;28;20471;-67
2023/01/01 00:41:28;;;;;;;35.85;19.92;;;;;;;6.24;nan;101904.41;5030954;28;20024;-68
2023/01/01 00:43:53;;;;;;;34.83;19.40;;;;;;;6.11;nan;101912.72;5034529;28;20021;-68
2023/01/01 00:46:18;;;;;;;40.75;22.45;;;;;;;5.95;nan;101913.47;5037756;28;20086;-68
2023/01/01 00:48:44;;;;;;;47.65;23.98;;;;;;;5.92;nan;101921.59;5039986;28;20028;-68
2023/01/01 00:51:09;;;;;;;44.30;24.67;;;;;;;5.83;nan;101898.19;5032068;28;20029;-67
2023/01/01 00:53:36;;;;;;;46.40;24.58;;;;;;;5.94;nan;101924.91;5041082;28;20034;-68
2023/01/01 00:56:01;;;;;;;45.28;26.08;;;;;;;5.92;nan;101924.22;5044161;28;20104;-69
2023/01/01 00:58:27;;;;;;;46.38;25.15;;;;;;;5.85;nan;101922.38;5047359;28;20108;-68
2023/01/01 01:00:53;;;;;;;51.25;27.02;;;;;;;5.83;nan;101932.97;5037012;28;20025;-68
2023/01/01 01:03:28;;;;;;;53.40;27.65;;;;;;;5.73;nan;101927.88;5032360;28;20053;-67
2023/01/01 01:05:57;;;;;;;53.38;28.98;;;;;;;5.71;nan;101927.19;5039648;28;20446;-68
2023/01/01 01:08:23;;;;;;;;;;;;;;;5.71;nan;101931.63;5042406;28;20032;-67
2023/01/01 01:10:49;;;;;;;59.30;29.17;;;;;;;5.66;nan;101934.69;5033869;28;19917;-66
2023/01/01 01:13:14;;;;;;;60.20;30.27;;;;;;;5.65;nan;101930.44;5030793;28;20099;-67
2023/01/01 01:15:39;;;;;;;63.40;31.25;;;;;;;5.61;nan;101918.66;5029509;28;20033;-69
2023/01/01 01:18:05;;;;;;;60.42;31.48;;;;;;;5.57;nan;101917.31;5036393;28;20487;-66
2023/01/01 01:20:30;;;;;;;57.42;29.13;;;;;;;5.62;nan;101929.91;5033236;28;20353;-69
2023/01/01 01:22:56;;;;;;;52.80;29.23;;;;;;;5.60;nan;101921.41;5040382;28;20123;-71
2023/01/01 01:25:21;;;;;;;59.13;29.92;;;;;;;5.59;nan;101922.41;5042982;28;20437;-71
2023/01/01 01:27:46;;;;;;;55.50;30.35;;;;;;;5.59;nan;101911.94;5036080;28;20057;-72
2023/01/01 01:30:12;;;;;;;56.80;29.63;;;;;;;5.52;nan;101898.66;5036383;28;20042;-71
2023/01/01 01:32:37;;;;;;;55.17;28.98;;;;;;;5.64;nan;101927.97;5031122;28;20128;-73
2023/01/01 01:35:03;;;;;;;55.65;28.77;;;;;;;5.55;nan;101908.81;5036729;28;20021;-73
2023/01/01 01:37:28;;;;;;;57.05;28.85;;;;;;;5.57;nan;101904.25;5033963;28;20029;-72
2023/01/01 01:39:54;;;;;;;56.47;28.73;;;;;;;5.66;nan;101916.41;5045732;28;20039;-71
2023/01/01 01:42:19;;;;;;;57.42;30.20;;;;;;;5.66;nan;101910.34;5039450;28;20033;-71
2023/01/01 01:44:45;;;;;;;57.67;30.40;;;;;;;5.70;nan;101914.31;5034787;28;20029;-71
2023/01/01 01:47:36;;;;;;;58.38;30.17;;;;;;;5.69;nan;101913.47;5040932;28;20025;-71
2023/01/01 01:50:15;;;;;;;59.03;29.98;;;;;;;5.59;nan;101893.66;5040779;28;20047;-72
2023/01/01 01:52:53;;;;;;;58.85;31.75;;;;;;;5.67;nan;101915.41;5035166;28;20060;-71
2023/01/01 01:55:19;;;;;;;66.57;32.58;;;;;;;5.66;nan;101908.56;5035956;28;20022;-71
2023/01/01 01:57:44;;;;;;;68.57;34.28;;;;;;;5.60;nan;101905.75;5035032;28;20039;-72
2023/01/01 02:00:11;;;;;;;71.60;34.50;;;;;;;5.52;nan;101891.66;5043591;28;20028;-72
2023/01/01 02:02:45;;;;;;;67.40;34.92;;;;;;;5.52;nan;101886.44;5038451;28;20021;-72
2023/01/01 02:05:10;;;;;;;65.00;35.15;;;;;;;5.55;nan;101890.53;5035063;28;20029;-72
2023/01/01 02:07:36;;;;;;;75.38;35.22;;;;;;;5.68;nan;101917.06;5034869;28;20491;-72
2023/01/01 02:10:02;;;;;;;67.50;34.35;;;;;;;5.65;nan;101913.94;5038191;28;20482;-72
2023/01/01 02:12:27;;;;;;;67.50;34.00;;;;;;;5.62;nan;101909.81;5033788;28;20021;-71
2023/01/01 02:14:53;;;;;;;66.75;35.40;;;;;;;5.58;nan;101902.44;5033592;28;20037;-73
2023/01/01 02:17:34;;;;;;;73.45;34.90;;;;;;;5.57;nan;101904.25;5034088;28;20048;-71
2023/01/01 02:20:00;;;;;;;65.55;32.50;;;;;;;5.52;nan;101909.13;5040874;28;20021;-71
2023/01/01 02:22:50;;;;;;;68.47;34.97;;;;;;;5.51;nan;101902.28;5036372;28;20091;-71
2023/01/01 02:25:45;;;;;;;71.80;37.08;;;;;;;5.52;nan;101890.84;5042826;28;20079;-71
2023/01/01 02:28:22;;;;;;;78.82;36.28;;;;;;;5.57;nan;101901.63;5037728;28;20025;-73
2023/01/01 02:30:50;;;;;;;71.35;35.85;;;;;;;5.49;nan;101894.59;5035292;28;20083;-70
2023/01/01 02:33:20;;;;;;;63.47;34.63;;;;;;;5.50;nan;101909.28;5035580;28;20125;-70
2023/01/01 02:35:58;;;;;;;63.28;32.78;;;;;;;5.34;nan;101893.50;5034622;28;20435;-71
2023/01/01 02:38:24;;;;;;;61.42;32.55;;;;;;;5.40;nan;101910.34;5033713;28;20025;-71
2023/01/01 02:40:55;;;;;;;58.92;31.92;;;;;;;5.35;nan;101904.78;5036161;28;20018;-72
2023/01/01 02:43:21;;;;;;;66.22;32.08;;;;;;;5.36;nan;101914.25;5041165;28;20399;-72
2023/01/01 02:45:46;;;;;;;61.80;31.38;;;;;;;5.38;nan;101907.88;5053987;28;20033;-72
2023/01/01 02:48:34;;;;;;;64.35;31.33;;;;;;;5.43;nan;101916.09;5031982;28;20060;-72
2023/01/01 02:51:03;;;;;;;55.13;29.88;;;;;;;5.35;nan;101902.16;5032232;28;20052;-72
2023/01/01 02:53:36;;;;;;;63.38;30.80;;;;;;;5.45;nan;101908.09;5033807;28;20103;-73
2023/01/01 02:56:01;;;;;;;57.80;29.00;;;;;;;5.47;nan;101898.31;5034218;28;20052;-71
2023/01/01 03:01:52;;;;;;;121.03;58.05;;;;;;;5.38;nan;101894.00;5032499;28;20269;-72
2023/01/01 03:04:30;;;;;;;61.42;31.73;;;;;;;5.30;nan;101889.56;5030409;28;20041;-72
2023/01/01 03:07:13;;;;;;;53.25;30.02;;;;;;;5.32;nan;101895.47;5040078;28;20036;-72
2023/01/01 03:10:08;;;;;;;53.28;29.02;;;;;;;5.33;nan;101890.06;5038251;28;20128;-72
2023/01/01 03:12:42;;;;;;;87.20;42.85;;;;;;;5.28;nan;101873.22;5039894;28;20034;-66
2023/01/01 03:15:11;;;;;;;72.78;38.08;;;;;;;5.29;nan;101886.13;5035114;28;20060;-67
2023/01/01 03:17:49;;;;;;;58.72;30.13;;;;;;;5.24;nan;101879.72;5032344;28;20029;-67
2023/01/01 03:20:27;;;;;;;55.17;30.53;;;;;;;5.27;nan;101888.06;5043041;28;20021;-66
2023/01/01 03:22:57;;;;;;;56.80;28.63;;;;;;;5.20;nan;101881.81;5039982;28;20044;-66
2023/01/01 03:25:30;;;;;;;55.25;28.27;;;;;;;5.32;nan;101895.47;5057778;28;20045;-66
2023/01/01 03:28:07;;;;;;;56.78;27.98;;;;;;;5.32;nan;101898.06;5034765;28;20029;-66
2023/01/01 03:30:36;;;;;;;52.28;27.52;;;;;;;5.30;nan;101893.00;5034786;28;20029;-67
2023/01/01 03:33:16;;;;;;;52.67;27.05;;;;;;;5.31;nan;101894.63;5036169;28;20028;-67
2023/01/01 03:35:56;;;;;;;51.33;26.98;;;;;;;5.30;nan;101897.41;5039564;28;20049;-66
2023/01/01 03:38:43;;;;;;;55.08;28.30;;;;;;;5.32;nan;101906.72;5041563;28;20364;-66
2023/01/01 03:41:20;;;;;;;54.90;28.98;;;;;;;5.32;nan;101908.53;5043676;28;20514;-67
2023/01/01 03:44:06;;;;;;;53.47;28.27;;;;;;;5.08;nan;101856.94;5042354;28;20029;-67
2023/01/01 03:46:34;;;;;;;56.33;28.65;;;;;;;5.25;nan;101883.97;5036745;28;20025;-67
2023/01/01 03:49:01;;;;;;;55.70;31.60;;;;;;;5.31;nan;101902.44;5037026;28;20116;-66
2023/01/01 03:51:44;;;;;;;50.03;27.58;;;;;;;5.18;nan;101880.34;5041008;28;20564;-66
2023/01/01 03:54:28;;;;;;;52.83;28.05;;;;;;;5.16;nan;101904.00;5034685;28;20036;-66
2023/01/01 03:57:04;;;;;;;48.50;26.05;;;;;;;5.07;nan;101897.06;5041300;28;20028;-65
2023/01/01 03:59:41;;;;;;;50.90;26.33;;;;;;;5.13;nan;101904.31;5031934;28;20104;-66
2023/01/01 04:02:12;;;;;;;46.50;26.20;;;;;;;5.05;nan;101899.00;5034803;28;20510;-66
2023/01/01 04:04:38;;;;;;;51.10;26.83;;;;;;;5.00;nan;101896.84;5039815;28;20023;-66
2023/01/01 04:07:03;;;;;;;50.65;26.60;;;;;;;5.01;nan;101908.13;5037226;28;20107;-66
2023/01/01 04:09:32;;;;;;;47.42;24.42;;;;;;;4.98;nan;101903.19;5034158;28;20033;-66
2023/01/01 04:12:01;;;;;;;47.00;24.90;;;;;;;4.98;nan;101911.00;5032083;28;20025;-65
2023/01/01 04:14:29;;;;;;;46.20;24.27;;;;;;;4.98;nan;101918.84;5039024;28;20037;-66
2023/01/01 04:16:56;;;;;;;46.42;24.50;;;;;;;4.95;nan;101919.97;5039915;28;20025;-66
2023/01/01 04:19:21;;;;;;;41.63;22.73;;;;;;;4.92;nan;101925.50;5034890;28;20033;-66
2023/01/01 04:21:46;;;;;;;52.22;23.73;;;;;;;4.94;nan;101923.56;5039398;28;20036;-66
2023/01/01 04:24:13;;;;;;;49.13;24.08;;;;;;;4.93;nan;101927.13;5041496;28;20033;-67
2023/01/01 04:26:39;;;;;;;55.92;29.05;;;;;;;4.79;nan;101909.38;5036617;28;20107;-67
2023/01/01 04:29:04;;;;;;;61.90;30.92;;;;;;;4.76;nan;101914.91;5035176;28;20519;-67
2023/01/01 04:31:29;;;;;;;53.53;29.40;;;;;;;4.83;nan;101937.63;5036500;28;20148;-67
2023/01/01 04:33:55;;;;;;;46.58;27.02;;;;;;;4.67;nan;101916.63;5037839;28;20082;-67
2023/01/01 04:36:20;;;;;;;47.90;25.35;;;;;;;4.78;nan;101926.03;5034206;28;20024;-67
2023/01/01 04:38:45;;;;;;;47.85;23.98;;;;;;;4.70;nan;101921.56;5031664;28;20534;-66
2023/01/01 04:41:11;;;;;;;48.95;24.88;;;;;;;4.64;nan;101911.69;5029843;28;20017;-67
2023/01/01 04:43:36;;;;;;;44.90;23.60;;;;;;;4.63;nan;101923.13;5032820;28;20030;-66
2023/01/01 04:46:03;;;;;;;42.83;23.75;;;;;;;4.70;nan;101937.22;5033250;28;20392;-67
2023/01/01 04:48:33;;;;;;;42.60;23.27;;;;;;;4.70;nan;101934.59;5050583;28;20028;-67
2023/01/01 04:51:02;;;;;;;38.33;20.98;;;;;;;4.65;nan;101937.66;5029826;28;20502;-67
2023/01/01 04:53:29;;;;;;;42.00;21.38;;;;;;;4.65;nan;101929.00;5033987;28;20142;-68
2023/01/01 04:55:55;;;;;;;41.30;20.77;;;;;;;4.58;nan;101922.75;5037106;28;20061;-68
2023/01/01 04:58:20;;;;;;;38.53;21.40;;;;;;;4.70;nan;101942.44;5033177;28;20485;-67
2023/01/01 05:00:50;;;;;;;39.05;19.60;;;;;;;4.74;nan;101949.00;5033008;28;20021;-68
2023/01/01 05:03:16;;;;;;;42.88;21.40;;;;;;;4.75;nan;101944.59;5029130;28;20037;-68
2023/01/01 05:05:41;;;;;;;40.38;20.05;;;;;;;4.72;nan;101940.50;5039565;28;20104;-68
2023/01/01 05:08:07;;;;;;;36.03;19.00;;;;;;;4.73;nan;101939.50;5040588;28;20163;-68
2023/01/01 05:10:32;;;;;;;36.97;18.85;;;;;;;4.67;nan;101940.13;5037070;28;20476;-68
2023/01/01 05:12:57;;;;;;;37.05;18.83;;;;;;;4.60;nan;101926.03;5038317;28;20052;-67
2023/01/01 05:15:23;;;;;;;36.10;18.58;;;;;;;4.61;nan;101928.47;5041126;28;20033;-68
2023/01/01 05:17:48;;;;;;;35.63;18.88;;;;;;;4.35;nan;101896.25;5035884;28;20021;-67
2023/01/01 05:20:14;;;;;;;37.28;19.65;;;;;;;4.63;nan;101941.38;5042883;28;20111;-68
2023/01/01 05:22:39;;;;;;;37.45;19.25;;;;;;;4.52;nan;101931.13;5036597;28;20033;-67
2023/01/01 05:25:05;;;;;;;35.67;19.20;;;;;;;4.52;nan;101941.56;5039372;28;20068;-67
2023/01/01 05:27:30;;;;;;;34.17;18.88;;;;;;;4.50;nan;101940.91;5046146;28;20033;-68
2023/01/01 05:29:56;;;;;;;36.60;18.88;;;;;;;4.52;nan;101944.19;5036490;28;20420;-67
2023/01/01 05:32:21;;;;;;;34.67;19.13;;;;;;;4.51;nan;101953.00;5028625;28;20029;-67
2023/01/01 05:34:47;;;;;;;32.33;18.38;;;;;;;4.53;nan;101946.66;5042970;28;20033;-72
2023/01/01 05:37:12;;;;;;;35.42;18.70;;;;;;;4.56;nan;101948.16;5035606;28;20306;-73
2023/01/01 05:39:37;;;;;;;33.70;18.55;;;;;;;4.57;nan;101942.75;5038760;28;20021;-74
2023/01/01 05:42:03;;;;;;;35.83;17.10;;;;;;;4.62;nan;101942.31;5042172;28;20116;-72
2023/01/01 05:44:28;;;;;;;35.58;17.67;;;;;;;4.64;nan;101953.44;5033334;28;20173;-73
2023/01/01 05:46:54;;;;;;;32.22;18.30;;;;;;;4.44;nan;101916.22;5034136;28;20037;-73
2023/01/01 05:49:19;;;;;;;31.25;18.35;;;;;;;4.62;nan;101948.38;5037597;28;20098;-72
2023/01/01 05:51:44;;;;;;;30.17;16.40;;;;;;;4.63;nan;101954.41;5033261;28;20112;-72
2023/01/01 05:54:10;;;;;;;36.38;17.40;;;;;;;4.51;nan;101937.34;5035562;28;20476;-72
2023/01/01 05:56:35;;;;;;;31.75;18.05;;;;;;;4.62;nan;101960.59;5035245;28;20096;-72
2023/01/01 05:59:01;;;;;;;32.63;17.23;;;;;;;4.58;nan;101949.63;5036472;28;20032;-73
2023/01/01 06:01:28;;;;;;;32.72;17.48;;;;;;;4.56;nan;101956.78;5039919;28;20017;-73
2023/01/01 06:03:55;;;;;;;34.30;18.20;;;;;;;4.51;nan;101953.00;5038020;28;20519;-73
2023/01/01 06:06:31;;;;;;;32.70;17.98;;;;;;;4.50;nan;101961.75;5031144;28;20021;-72
2023/01/01 06:08:59;;;;;;;32.78;17.80;;;;;;;4.40;nan;101957.41;5036591;28;20084;-73
2023/01/01 06:11:25;;;;;;;31.73;17.88;;;;;;;4.35;nan;101958.84;5033702;28;20551;-72
2023/01/01 06:13:53;;;;;;;35.92;18.73;;;;;;;4.35;nan;101962.25;5031985;28;20378;-72
2023/01/01 06:16:18;;;;;;;32.67;18.17;;;;;;;4.29;nan;101952.41;5034429;28;20021;-66
2023/01/01 06:18:44;;;;;;;40.17;18.20;;;;;;;4.19;nan;101949.84;5032432;28;20387;-65
2023/01/01 06:21:13;;;;;;;35.42;19.13;;;;;;;4.33;nan;101977.22;5036759;28;20017;-65
2023/01/01 06:23:39;;;;;;;33.83;18.35;;;;;;;4.33;nan;101982.44;5032758;28;20933;-66
2023/01/01 06:26:15;;;;;;;36.33;17.80;;;;;;;4.32;nan;101988.63;5035017;28;20049;-65
2023/01/01 06:28:42;;;;;;;38.78;18.35;;;;;;;4.30;nan;101993.16;5038227;28;20052;-73
2023/01/01 06:31:09;;;;;;;34.42;17.85;;;;;;;4.32;nan;101999.06;5033109;28;20471;-73
2023/01/01 06:33:37;;;;;;;31.48;18.05;;;;;;;4.25;nan;101990.16;5033856;28;20750;-73
2023/01/01 06:36:05;;;;;;;35.13;17.83;;;;;;;4.24;nan;101991.16;5034783;28;20029;-68
2023/01/01 06:38:35;;;;;;;33.88;18.92;;;;;;;4.24;nan;101991.16;5036957;28;20022;-71
2023/01/01 06:41:05;;;;;;;37.67;18.05;;;;;;;4.33;nan;101997.25;5030538;28;20025;-71
2023/01/01 06:43:32;;;;;;;37.03;19.08;;;;;;;4.31;nan;102007.88;5029181;28;20032;-71
2023/01/01 06:46:02;;;;;;;33.30;18.25;;;;;;;4.35;nan;102005.78;5032624;28;20107;-71
2023/01/01 06:48:29;;;;;;;37.95;19.38;;;;;;;4.32;nan;102000.84;5037112;28;20024;-71
2023/01/01 06:50:54;;;;;;;33.03;18.70;;;;;;;4.36;nan;102010.03;5033521;28;20053;-71
2023/01/01 06:53:23;;;;;;;42.47;20.50;;;;;;;4.35;nan;102003.97;5040082;28;20124;-71
2023/01/01 06:55:49;;;;;;;39.17;20.50;;;;;;;4.32;nan;102001.66;5039800;28;20021;-71
2023/01/01 06:58:14;;;;;;;38.67;21.20;;;;;;;4.35;nan;102005.78;5039305;28;20033;-71
2023/01/01 07:00:39;;;;;;;37.00;20.52;;;;;;;4.37;nan;102012.50;5035158;28;20029;-71
2023/01/01 07:03:05;;;;;;;40.45;19.77;;;;;;;4.33;nan;101995.47;5039802;28;20128;-72
2023/01/01 07:05:30;;;;;;;41.85;20.55;;;;;;;4.39;nan;102007.94;5036201;28;20030;-72
2023/01/01 07:07:55;;;;;;;77.78;25.17;;;;;;;4.51;nan;102012.97;5038960;28;20488;-71
2023/01/01 07:10:21;;;;;;;43.50;21.90;;;;;;;4.95;nan;102005.28;5038279;28;20021;-71
2023/01/01 07:12:46;;;;;;;39.65;20.15;;;;;;;5.00;nan;102003.06;5035086;28;20037;-72
2023/01/01 07:15:11;;;;;;;32.05;17.98;;;;;;;4.83;nan;101987.22;5036627;28;20491;-66
2023/01/01 07:17:37;;;;;;;33.47;16.95;;;;;;;4.78;nan;102009.53;5035249;28;20048;-67
2023/01/01 07:20:02;;;;;;;30.45;17.42;;;;;;;4.76;nan;102009.66;5046840;28;21074;-67
2023/01/01 07:22:28;;;;;;;34.20;16.00;;;;;;;4.60;nan;101991.25;5033689;28;20022;-66
2023/01/01 07:24:53;;;;;;;31.20;16.50;;;;;;;4.72;nan;102012.72;5033689;28;20025;-66
2023/01/01 07:27:18;;;;;;;30.60;15.95;;;;;;;4.72;nan;102010.94;5035246;28;20025;-71
2023/01/01 07:29:44;;;;;;;31.23;16.08;;;;;;;4.76;nan;102006.25;5038598;28;20117;-71
2023/01/01 07:32:12;;;;;;;45.63;21.50;;;;;;;4.77;nan;102013.13;5032768;28;20447;-71
2023/01/01 07:34:38;;;;;;;48.30;23.33;;;;;;;4.67;nan;102000.94;5041827;28;20026;-71
2023/01/01 07:37:03;;;;;;;41.80;20.95;;;;;;;4.76;nan;102009.66;5031299;28;20022;-71
2023/01/01 07:39:28;;;;;;;34.55;18.30;;;;;;;4.81;nan;102001.41;5041203;28;20048;-71
2023/01/01 07:41:54;;;;;;;35.35;19.48;;;;;;;4.77;nan;101987.84;5040422;28;20052;-71
2023/01/01 07:44:19;;;;;;;33.95;17.90;;;;;;;4.75;nan;101983.75;5035884;28;20028;-71
2023/01/01 07:46:44;;;;;;;36.40;20.05;;;;;;;4.87;nan;101993.81;5043867;28;20070;-71
2023/01/01 07:49:10;;;;;;;43.10;21.95;;;;;;;4.97;nan;102000.75;5041285;28;20491;-70
2023/01/01 07:51:35;;;;;;;36.95;20.88;;;;;;;4.92;nan;101984.72;5035060;28;20032;-71
2023/01/01 07:54:01;;;;;;;43.20;21.25;;;;;;;5.02;nan;101995.91;5045259;28;20033;-71
2023/01/01 07:56:26;;;;;;;39.28;20.40;;;;;;;5.07;nan;101993.66;5037146;28;20553;-71
2023/01/01 07:58:51;;;;;;;38.03;19.05;;;;;;;5.06;nan;101978.97;5036736;28;20025;-71
2023/01/01 08:01:17;;;;;;;36.72;19.10;;;;;;;5.21;nan;102000.97;5037400;28;20017;-71
2023/01/01 08:03:43;;;;;;;33.50;18.33;;;;;;;5.24;nan;101992.00;5042082;28;20059;-72
2023/01/01 08:06:10;;;;;;;29.35;16.05;;;;;;;5.37;nan;101995.06;5034298;28;20025;-71
2023/01/01 08:08:36;;;;;;;31.33;17.15;;;;;;;5.42;nan;101990.22;5038055;28;20034;-70
2023/01/01 08:11:02;;;;;;;32.63;17.05;;;;;;;5.48;nan;101986.16;5039270;28;20027;-71
2023/01/01 08:13:27;;;;;;;32.20;17.13;;;;;;;5.64;nan;101995.94;5037962;28;20044;-71
2023/01/01 08:15:54;;;;;;;31.13;16.98;;;;;;;5.62;nan;101983.00;5036569;28;20444;-72
2023/01/01 08:18:19;;;;;;;30.85;16.77;;;;;;;5.79;nan;101997.00;5038988;28;20029;-71
2023/01/01 08:20:45;;;;;;;33.35;17.67;;;;;;;5.87;nan;101996.25;5040524;28;20032;-71
2023/01/01 08:23:10;;;;;;;29.45;16.83;;;;;;;5.95;nan;101996.31;5043831;28;20136;-72
2023/01/01 08:25:38;;;;;;;30.00;16.92;;;;;;;6.05;nan;101999.63;5043055;28;20099;-72
2023/01/01 08:28:04;;;;;;;30.10;15.93;;;;;;;6.12;nan;102000.66;5037763;28;20164;-71
2023/01/01 08:30:29;;;;;;;33.35;18.05;;;;;;;6.26;nan;101993.22;5035140;28;20108;-71
2023/01/01 08:32:55;;;;;;;28.08;16.33;;;;;;;6.29;nan;101982.41;5036956;28;20060;-73
2023/01/01 08:35:20;;;;;;;31.70;16.83;;;;;;;6.48;nan;101992.63;5042397;28;20494;-73
2023/01/01 08:37:45;;;;;;;30.58;16.38;;;;;;;6.60;nan;101993.97;5035254;28;20539;-73
2023/01/01 08:40:12;;;;;;;29.90;16.35;;;;;;;6.71;nan;101999.91;5034750;28;20025;-74
2023/01/01 08:42:37;;;;;;;27.77;15.85;;;;;;;;;;5042273;28;20028;-73
2023/01/01 08:45:02;;;;;;;27.42;15.18;;;;;;;;;;5040983;28;20116;-71
2023/01/01 08:47:28;;;;;;;25.48;14.38;;;;;;;;;;5033377;28;20052;-70
2023/01/01 08:49:53;;;;;;;24.70;14.63;;;;;;;;;;5033906;28;20043;-71
2023/01/01 08:52:18;;;;;;;28.00;15.13;;;;;;;;;;5034496;28;20041;-74
2023/01/01 08:54:44;;;;;;;25.30;15.25;;;;;;;;;;5042396;28;20029;-72
2023/01/01 08:57:09;;;;;;;27.50;14.55;;;;;;;;;;5040062;28;20036;-71
2023/01/01 08:59:34;;;;;;;24.65;14.68;;;;;;;;;;5035682;28;20033;-71
2023/01/01 09:02:00;;;;;;;29.90;15.57;;;;;;;;;;5036959;28;20027;-71
2023/01/01 09:04:25;;;;;;;26.70;14.73;;;;;;;;;;5039299;28;20044;-72
2023/01/01 09:06:51;;;;;;;25.60;15.57;;;;;;;;;;5033647;28;20029;-71
2023/01/01 09:09:16;;;;;;;26.35;15.15;;;;;;;;;;5036521;28;20033;-71
2023/01/01 09:12:02;;;;;;;28.52;14.43;;;;;;;8.31;nan;101976.50;5040916;28;20033;-71
2023/01/01 09:14:28;;;;;;;27.08;15.02;;;;;;;8.49;nan;101980.72;5040025;28;20075;-70
2023/01/01 09:16:53;;;;;;;25.50;13.60;;;;;;;8.89;nan;102008.56;5044487;28;20030;-68
2023/01/01 09:19:19;;;;;;;25.98;14.05;;;;;;;8.76;nan;101957.56;5035400;28;20036;-70
2023/01/01 09:21:44;;;;;;;26.77;14.80;;;;;;;8.89;nan;101957.81;5040245;28;20598;-70
2023/01/01 09:24:10;;;;;;;21.40;13.45;;;;;;;9.10;nan;101967.69;5036317;28;20029;-72
2023/01/01 09:26:35;;;;;;;22.83;13.52;;;;;;;9.23;nan;101953.94;5040793;28;20483;-71
2023/01/01 09:29:00;;;;;;;26.08;14.25;;;;;;;9.40;nan;101951.97;5035786;28;20034;-71
2023/01/01 09:31:26;;;;;;;25.10;14.50;;;;;;;9.47;nan;101950.28;5033150;28;20510;-71
2023/01/01 09:33:51;;;;;;;27.83;14.38;;;;;;;9.63;nan;101949.31;5031534;28;20026;-71
2023/01/01 09:36:19;;;;;;;22.75;13.02;;;;;;;9.75;nan;101953.94;5040951;28;20041;-71
2023/01/01 09:38:49;;;;;;;27.27;13.80;;;;;;;9.71;nan;101934.25;5031609;28;20448;-72
2023/01/01 09:41:33;;;;;;;;;;;;;;;10.01;nan;101953.47;5033666;28;20047;-72
2023/01/01 09:44:23;;;;;;;24.50;13.25;;;;;;;10.18;nan;101948.03;5040797;28;19975;-73
2023/01/01 09:46:51;;;;;;;24.55;12.80;;;;;;;10.31;nan;101950.00;5038397;28;20033;-73
2023/01/01 09:49:43;;;;;;;20.08;12.85;;;;;;;10.48;nan;101959.31;5038506;28;20036;-70
2023/01/01 09:52:13;;;;;;;23.48;12.85;;;;;;;10.56;nan;101948.69;5033912;28;20033;-71
2023/01/01 09:54:50;;;;;;;22.35;12.68;;;;;;;10.73;nan;101951.91;5052825;28;20036;-70
2023/01/01 09:57:15;;;;;;;21.75;12.23;;;;;;;10.76;nan;101946.25;5048644;28;20593;-71
2023/01/01 09:59:41;;;;;;;19.10;12.40;;;;;;;10.89;nan;101942.09;5033444;28;20021;-74
2023/01/01 10:02:18;;;;;;;20.95;12.38;;;;;;;11.00;nan;101946.88;5033802;28;20029;-72
2023/01/01 10:04:58;;;;;;;20.73;12.48;;;;;;;11.07;nan;101951.19;5039010;28;20057;-72
2023/01/01 10:07:26;;;;;;;19.10;11.38;;;;;;;11.15;nan;101949.44;5040166;28;20055;-71
2023/01/01 10:10:10;;;;;;;19.50;12.23;;;;;;;11.24;nan;101950.94;5030685;28;20095;-71
2023/01/01 10:12:43;;;;;;;18.45;11.85;;;;;;;11.35;nan;101941.66;5037436;28;20035;-71
2023/01/01 10:15:21;;;;;;;20.27;11.85;;;;;;;11.45;nan;101940.34;5031173;28;20029;-71
2023/01/01 10:17:50;;;;;;;22.17;12.20;;;;;;;11.52;nan;101936.91;5044199;28;20084;-70
2023/01/01 10:20:25;;;;;;;18.85;11.68;;;;;;;11.63;nan;101936.38;5036693;28;20149;-71
2023/01/01 10:23:03;;;;;;;19.08;11.02;;;;;;;11.73;nan;101928.91;5041062;28;20555;-71
2023/01/01 10:25:31;;;;;;;17.45;11.00;;;;;;;11.86;nan;101931.63;5034720;28;20040;-71
2023/01/01 10:28:00;;;;;;;19.85;10.50;;;;;;;11.94;nan;101921.97;5031758;28;20043;-70
2023/01/01 10:30:28;;;;;;;17.85;10.60;;;;;;;12.06;nan;101917.75;5033517;28;20024;-71
2023/01/01 10:32:54;;;;;;;15.30;10.07;;;;;;;12.08;nan;101908.59;5041415;28;20032;-72
2023/01/01 10:35:29;;;;;;;21.40;10.02;;;;;;;12.31;nan;101921.50;5033690;28;20074;-70
2023/01/01 10:37:55;;;;;;;17.75;10.60;;;;;;;12.37;nan;101916.44;5048836;28;20085;-70
2023/01/01 10:40:23;;;;;;;18.55;10.95;;;;;;;12.48;nan;101914.00;5035694;28;20079;-71
2023/01/01 10:42:51;;;;;;;16.63;10.27;;;;;;;12.48;nan;101911.38;5050137;28;20487;-72
2023/01/01 10:45:31;;;;;;;17.63;10.88;;;;;;;12.65;nan;101909.16;5039084;28;20028;-71
2023/01/01 10:48:11;;;;;;;15.38;10.07;;;;;;;12.75;nan;101906.13;5038104;28;20021;-70
2023/01/01 10:50:58;;;;;;;18.90;11.07;;;;;;;12.84;nan;101893.53;5029693;28;20316;-71
2023/01/01 10:53:24;;;;;;;15.63;10.07;;;;;;;12.91;nan;101892.50;5032215;28;20025;-70
2023/01/01 10:55:56;;;;;;;15.82;10.23;;;;;;;12.98;nan;101881.94;5036730;28;20086;-71
2023/01/01 10:58:41;;;;;;;17.42;10.27;;;;;;;13.09;nan;101885.78;5035696;28;20483;-71
2023/01/01 11:01:10;;;;;;;21.13;10.88;;;;;;;13.05;nan;101876.63;5034266;28;20040;-71
2023/01/01 11:03:36;;;;;;;17.05;9.82;;;;;;;13.13;nan;101858.72;5038906;28;20107;-72
2023/01/01 11:06:16;;;;;;;17.13;9.60;;;;;;;13.34;nan;101867.47;5034637;28;20164;-71
2023/01/01 11:08:47;;;;;;;19.40;10.20;;;;;;;13.44;nan;101859.91;5036985;28;20025;-73
2023/01/01 11:11:27;;;;;;;20.77;10.65;;;;;;;13.51;nan;101851.97;5032645;28;20035;-71
2023/01/01 11:13:55;;;;;;;15.63;9.65;;;;;;;13.63;nan;101854.78;5037104;28;20052;-72
2023/01/01 11:16:21;;;;;;;15.60;9.80;;;;;;;13.71;nan;101855.34;5031734;28;20077;-71
2023/01/01 11:18:48;;;;;;;16.33;9.63;;;;;;;13.78;nan;101845.53;5036261;28;20539;-71
2023/01/01 11:21:20;;;;;;;11.95;9.02;;;;;;;13.87;nan;101840.81;5036823;28;20022;-73
2023/01/01 11:23:47;;;;;;;14.65;9.43;;;;;;;13.86;nan;101835.72;5033031;28;20115;-72
2023/01/01 11:26:16;;;;;;;14.52;9.30;;;;;;;14.00;nan;101843.38;5052350;28;20052;-71
2023/01/01 11:28:41;;;;;;;14.52;8.95;;;;;;;14.06;nan;101847.03;5028193;28;20033;-72
2023/01/01 11:31:14;;;;;;;16.98;9.23;;;;;;;14.08;nan;101833.56;5040743;28;20395;-75
2023/01/01 11:33:53;;;;;;;13.77;8.55;;;;;;;14.21;nan;101839.59;5033289;28;20095;-71
2023/01/01 11:36:28;;;;;;;12.57;8.82;;;;;;;14.22;nan;101841.25;5031076;28;20032;-72
2023/01/01 11:39:18;;;;;;;14.38;8.30;;;;;;;14.35;nan;101847.47;5041067;28;20076;-72
2023/01/01 11:41:49;;;;;;;14.75;8.60;;;;;;;14.40;nan;101843.16;5035676;28;20021;-72
2023/01/01 11:44:39;;;;;;;16.77;8.25;;;;;;;14.48;nan;101844.72;5039660;28;21026;-72
2023/01/01 11:47:05;;;;;;;13.85;8.95;;;;;;;14.57;nan;101843.47;5032458;28;20110;-71
2023/01/01 11:49:31;;;;;;;14.25;8.50;;;;;;;14.44;nan;101817.84;5034626;28;20022;-73
2023/01/01 11:51:57;;;;;;;13.02;8.63;;;;;;;14.59;nan;101809.59;5032797;28;20017;-73
2023/01/01 11:54:28;;;;;;;13.43;8.55;;;;;;;14.74;nan;101827.00;5034846;28;20039;-72